sensor_id;sensor_type;location;lat;lon;timestamp;pressure;altitude;pressure_sealevel;temperature;humidity
33163;BME280;29282;45.656;11.302;2023-05-09T00:00:13;98731.09;;;19.51;59.12
33163;BME280;29282;45.656;11.302;2023-05-09T00:02:39;98731.88;;;19.52;59.02
33163;BME280;29282;45.656;11.302;2023-05-09T00:05:05;98727.19;;;19.52;58.94
33163;BME280;29282;45.656;11.302;2023-05-09T00:07:32;98724.78;;;19.51;59.08
33163;BME280;29282;45.656;11.302;2023-05-09T00:09:58;98722.84;;;19.51;58.90
33163;BME280;29282;45.656;11.302;2023-05-09T00:12:24;98725.59;;;19.51;59.01
33163;BME280;29282;45.656;11.302;2023-05-09T00:14:49;98726.38;;;19.52;59.01
33163;BME280;29282;45.656;11.302;2023-05-09T00:17:16;98733.81;;;19.51;58.96
33163;BME280;29282;45.656;11.302;2023-05-09T00:19:43;98724.78;;;19.51;58.95
33163;BME280;29282;45.656;11.302;2023-05-09T00:22:11;98723.94;;;19.50;58.98
33163;BME280;29282;45.656;11.302;2023-05-09T00:24:40;98727.53;;;19.51;58.94
33163;BME280;29282;45.656;11.302;2023-05-09T00:27:06;98718.44;;;19.50;58.97
33163;BME280;29282;45.656;11.302;2023-05-09T00:29:31;98722.84;;;19.51;58.88
33163;BME280;29282;45.656;11.302;2023-05-09T00:31:56;98719.28;;;19.51;58.96
33163;BME280;29282;45.656;11.302;2023-05-09T00:34:22;98726.69;;;19.50;58.94
33163;BME280;29282;45.656;11.302;2023-05-09T00:36:47;98726.69;;;19.50;58.88
33163;BME280;29282;45.656;11.302;2023-05-09T00:39:14;98716.84;;;19.49;58.96
33163;BME280;29282;45.656;11.302;2023-05-09T00:41:39;98723.94;;;19.50;58.79
33163;BME280;29282;45.656;11.302;2023-05-09T00:44:04;98726.69;;;19.50;58.92
33163;BME280;29282;45.656;11.302;2023-05-09T00:46:30;98725.91;;;19.49;58.96
33163;BME280;29282;45.656;11.302;2023-05-09T00:48:56;98715.72;;;19.50;58.88
33163;BME280;29282;45.656;11.302;2023-05-09T00:51:22;98705.06;;;19.48;58.78
33163;BME280;29282;45.656;11.302;2023-05-09T00:53:48;98712.97;;;19.50;58.81
33163;BME280;29282;45.656;11.302;2023-05-09T00:56:14;98714.09;;;19.49;58.78
33163;BME280;29282;45.656;11.302;2023-05-09T00:58:39;98714.09;;;19.49;58.87
33163;BME280;29282;45.656;11.302;2023-05-09T01:01:05;98700.38;;;19.49;58.61
33163;BME280;29282;45.656;11.302;2023-05-09T01:03:32;98699.56;;;19.48;58.76
33163;BME280;29282;45.656;11.302;2023-05-09T01:06:21;98699.56;;;19.48;58.76
33163;BME280;29282;45.656;11.302;2023-05-09T01:11:31;98700.38;;;19.49;58.73
33163;BME280;29282;45.656;11.302;2023-05-09T01:14:04;98696.81;;;19.48;58.72
33163;BME280;29282;45.656;11.302;2023-05-09T01:16:42;98693.25;;;19.48;58.77
33163;BME280;29282;45.656;11.302;2023-05-09T01:22:14;98686.16;;;19.47;58.80
33163;BME280;29282;45.656;11.302;2023-05-09T01:25:00;98682.59;;;19.46;58.68
33163;BME280;29282;45.656;11.302;2023-05-09T01:30:11;98688.09;;;19.46;58.64
33163;BME280;29282;45.656;11.302;2023-05-09T01:32:38;98683.06;;;19.48;58.84
33163;BME280;29282;45.656;11.302;2023-05-09T01:35:07;98680.69;;;19.47;58.74
33163;BME280;29282;45.656;11.302;2023-05-09T01:37:38;98680.69;;;19.47;58.69
33163;BME280;29282;45.656;11.302;2023-05-09T01:40:09;98683.41;;;19.47;58.61
33163;BME280;29282;45.656;11.302;2023-05-09T01:42:40;98688.91;;;19.47;58.80
33163;BME280;29282;45.656;11.302;2023-05-09T01:45:08;98684.22;;;19.47;58.85
33163;BME280;29282;45.656;11.302;2023-05-09T01:47:36;98685.34;;;19.46;58.76
33163;BME280;29282;45.656;11.302;2023-05-09T01:50:02;98691.66;;;19.47;58.81
33163;BME280;29282;45.656;11.302;2023-05-09T01:52:30;98694.41;;;19.47;58.57
33163;BME280;29282;45.656;11.302;2023-05-09T01:54:57;98689.22;;;19.45;58.67
33163;BME280;29282;45.656;11.302;2023-05-09T01:57:24;98690.03;;;19.46;58.55
33163;BME280;29282;45.656;11.302;2023-05-09T01:59:51;98690.03;;;19.46;58.82
33163;BME280;29282;45.656;11.302;2023-05-09T02:02:17;98689.22;;;19.45;58.64
33163;BME280;29282;45.656;11.302;2023-05-09T02:04:44;98690.84;;;19.46;58.61
33163;BME280;29282;45.656;11.302;2023-05-09T02:07:11;98698.28;;;19.46;58.42
33163;BME280;29282;45.656;11.302;2023-05-09T02:09:37;98700.22;;;19.45;58.62
33163;BME280;29282;45.656;11.302;2023-05-09T02:12:03;98693.94;;;19.45;58.63
33163;BME280;29282;45.656;11.302;2023-05-09T02:14:31;98695.53;;;19.46;58.54
33163;BME280;29282;45.656;11.302;2023-05-09T02:16:59;98691.97;;;19.45;58.46
33163;BME280;29282;45.656;11.302;2023-05-09T02:19:30;98686.47;;;19.45;58.54
33163;BME280;29282;45.656;11.302;2023-05-09T02:21:56;98682.94;;;19.45;58.62
33163;BME280;29282;45.656;11.302;2023-05-09T02:24:21;98687.63;;;19.44;58.43
33163;BME280;29282;45.656;11.302;2023-05-09T02:26:47;98687.28;;;19.46;58.41
33163;BME280;29282;45.656;11.302;2023-05-09T02:29:15;98679.38;;;19.44;58.54
33163;BME280;29282;45.656;11.302;2023-05-09T02:31:45;98680.19;;;19.45;58.47
33163;BME280;29282;45.656;11.302;2023-05-09T02:34:12;98680.19;;;19.45;58.54
33163;BME280;29282;45.656;11.302;2023-05-09T02:36:38;98684.53;;;19.46;58.54
33163;BME280;29282;45.656;11.302;2023-05-09T02:39:05;98677.44;;;19.45;58.48
33163;BME280;29282;45.656;11.302;2023-05-09T02:41:31;98679.38;;;19.44;58.45
33163;BME280;29282;45.656;11.302;2023-05-09T02:43:56;98678.59;;;19.44;58.42
33163;BME280;29282;45.656;11.302;2023-05-09T02:46:22;98673.88;;;19.44;58.50
33163;BME280;29282;45.656;11.302;2023-05-09T02:48:47;98682.94;;;19.45;58.54
33163;BME280;29282;45.656;11.302;2023-05-09T02:51:13;98672.25;;;19.43;58.50
33163;BME280;29282;45.656;11.302;2023-05-09T02:53:39;98666.75;;;19.43;58.51
33163;BME280;29282;45.656;11.302;2023-05-09T02:56:04;98661.25;;;19.43;58.47
33163;BME280;29282;45.656;11.302;2023-05-09T02:58:29;98668.72;;;19.43;58.41
33163;BME280;29282;45.656;11.302;2023-05-09T03:00:55;98664.84;;;19.44;58.32
33163;BME280;29282;45.656;11.302;2023-05-09T03:03:21;98664.00;;;19.43;58.64
33163;BME280;29282;45.656;11.302;2023-05-09T03:05:47;98661.25;;;19.43;58.23
33163;BME280;29282;45.656;11.302;2023-05-09T03:08:12;98664.00;;;19.43;58.47
33163;BME280;29282;45.656;11.302;2023-05-09T03:10:38;98663.22;;;19.43;58.47
33163;BME280;29282;45.656;11.302;2023-05-09T03:13:03;98674.22;;;19.43;58.38
33163;BME280;29282;45.656;11.302;2023-05-09T03:15:29;98667.91;;;19.42;58.45
33163;BME280;29282;45.656;11.302;2023-05-09T03:17:54;98664.00;;;19.43;58.46
33163;BME280;29282;45.656;11.302;2023-05-09T03:20:20;98664.00;;;19.43;58.33
33163;BME280;29282;45.656;11.302;2023-05-09T03:22:45;98656.91;;;19.42;58.36
33163;BME280;29282;45.656;11.302;2023-05-09T03:25:12;98651.41;;;19.42;58.54
33163;BME280;29282;45.656;11.302;2023-05-09T03:27:38;98650.63;;;19.42;58.46
33163;BME280;29282;45.656;11.302;2023-05-09T03:30:04;98654.16;;;19.42;58.40
33163;BME280;29282;45.656;11.302;2023-05-09T03:32:29;98651.41;;;19.42;58.25
33163;BME280;29282;45.656;11.302;2023-05-09T03:34:55;98649.81;;;19.41;58.34
33163;BME280;29282;45.656;11.302;2023-05-09T03:37:21;98656.91;;;19.42;58.34
33163;BME280;29282;45.656;11.302;2023-05-09T03:39:46;98649.03;;;19.41;58.37
33163;BME280;29282;45.656;11.302;2023-05-09T03:42:12;98653.38;;;19.42;58.44
33163;BME280;29282;45.656;11.302;2023-05-09T03:44:38;98652.56;;;19.41;58.34
33163;BME280;29282;45.656;11.302;2023-05-09T03:47:06;98656.13;;;19.42;58.32
33163;BME280;29282;45.656;11.302;2023-05-09T03:49:31;98654.53;;;19.41;58.41
33163;BME280;29282;45.656;11.302;2023-05-09T03:51:57;98657.25;;;19.41;58.32
33163;BME280;29282;45.656;11.302;2023-05-09T03:54:22;98658.88;;;19.42;58.31
33163;BME280;29282;45.656;11.302;2023-05-09T03:56:48;98658.88;;;19.42;58.35
33163;BME280;29282;45.656;11.302;2023-05-09T03:59:16;98658.38;;;19.40;58.13
33163;BME280;29282;45.656;11.302;2023-05-09T04:01:41;98665.03;;;19.39;57.90
33163;BME280;29282;45.656;11.302;2023-05-09T04:04:07;98661.47;;;19.38;58.03
33163;BME280;29282;45.656;11.302;2023-05-09T04:06:33;98666.16;;;19.38;58.08
33163;BME280;29282;45.656;11.302;2023-05-09T04:08:58;98672.47;;;19.38;57.72
33163;BME280;29282;45.656;11.302;2023-05-09T04:11:24;98670.03;;;19.37;57.87
33163;BME280;29282;45.656;11.302;2023-05-09T04:13:49;98669.22;;;19.36;57.90
33163;BME280;29282;45.656;11.302;2023-05-09T04:16:15;98668.44;;;19.36;57.83
33163;BME280;29282;45.656;11.302;2023-05-09T04:18:40;98669.22;;;19.36;57.82
33163;BME280;29282;45.656;11.302;2023-05-09T04:21:07;98668.44;;;19.36;57.79
33163;BME280;29282;45.656;11.302;2023-05-09T04:23:32;98669.56;;;19.35;57.77
33163;BME280;29282;45.656;11.302;2023-05-09T04:25:58;98667.97;;;19.34;57.70
33163;BME280;29282;45.656;11.302;2023-05-09T04:28:24;98666.84;;;19.35;57.63
33163;BME280;29282;45.656;11.302;2023-05-09T04:30:49;98666.03;;;19.34;58.18
33163;BME280;29282;45.656;11.302;2023-05-09T04:33:15;98668.78;;;19.34;58.14
33163;BME280;29282;45.656;11.302;2023-05-09T04:35:41;98667.97;;;19.34;58.09
33163;BME280;29282;45.656;11.302;2023-05-09T04:38:06;98672.31;;;19.35;57.65
33163;BME280;29282;45.656;11.302;2023-05-09T04:40:32;98672.31;;;19.35;57.65
33163;BME280;29282;45.656;11.302;2023-05-09T04:43:01;98670.38;;;19.35;57.64
33163;BME280;29282;45.656;11.302;2023-05-09T04:45:28;98662.94;;;19.36;57.85
33163;BME280;29282;45.656;11.302;2023-05-09T04:47:53;98662.94;;;19.36;57.74
33163;BME280;29282;45.656;11.302;2023-05-09T04:50:19;98664.09;;;19.35;57.96
33163;BME280;29282;45.656;11.302;2023-05-09T04:52:44;98661.00;;;19.36;57.93
33163;BME280;29282;45.656;11.302;2023-05-09T04:55:10;98666.84;;;19.35;57.75
33163;BME280;29282;45.656;11.302;2023-05-09T04:57:35;98669.22;;;19.36;57.77
33163;BME280;29282;45.656;11.302;2023-05-09T05:00:00;98672.78;;;19.37;57.90
33163;BME280;29282;45.656;11.302;2023-05-09T05:02:26;98671.19;;;19.36;57.79
33163;BME280;29282;45.656;11.302;2023-05-09T05:04:54;98667.28;;;19.37;57.75
33163;BME280;29282;45.656;11.302;2023-05-09T05:07:20;98675.53;;;19.37;57.89
33163;BME280;29282;45.656;11.302;2023-05-09T05:09:45;98674.72;;;19.36;57.70
33163;BME280;29282;45.656;11.302;2023-05-09T05:12:10;98675.53;;;19.37;57.86
33163;BME280;29282;45.656;11.302;2023-05-09T05:14:36;98685.72;;;19.36;57.90
33163;BME280;29282;45.656;11.302;2023-05-09T05:17:01;98678.28;;;19.37;57.75
33163;BME280;29282;45.656;11.302;2023-05-09T05:19:26;98681.03;;;19.37;57.88
33163;BME280;29282;45.656;11.302;2023-05-09T05:21:52;98684.91;;;19.36;57.72
33163;BME280;29282;45.656;11.302;2023-05-09T05:24:17;98686.50;;;19.37;57.88
33163;BME280;29282;45.656;11.302;2023-05-09T05:26:42;98685.72;;;19.36;57.78
33163;BME280;29282;45.656;11.302;2023-05-09T05:29:08;98681.03;;;19.37;57.87
33163;BME280;29282;45.656;11.302;2023-05-09T05:31:34;98682.16;;;19.36;57.90
33163;BME280;29282;45.656;11.302;2023-05-09T05:33:59;98689.59;;;19.35;57.71
33163;BME280;29282;45.656;11.302;2023-05-09T05:36:24;98693.97;;;19.36;57.82
33163;BME280;29282;45.656;11.302;2023-05-09T05:38:50;98701.41;;;19.36;57.79
33163;BME280;29282;45.656;11.302;2023-05-09T05:41:15;98691.22;;;19.36;57.83
33163;BME280;29282;45.656;11.302;2023-05-09T05:43:41;98695.09;;;19.35;57.89
33163;BME280;29282;45.656;11.302;2023-05-09T05:46:06;98695.09;;;19.35;57.73
33163;BME280;29282;45.656;11.302;2023-05-09T05:48:32;98689.59;;;19.35;57.85
33163;BME280;29282;45.656;11.302;2023-05-09T05:50:57;98695.91;;;19.36;57.69
33163;BME280;29282;45.656;11.302;2023-05-09T05:53:22;98695.91;;;19.36;57.75
33163;BME280;29282;45.656;11.302;2023-05-09T05:55:48;98695.09;;;19.35;57.81
33163;BME280;29282;45.656;11.302;2023-05-09T05:58:13;98697.50;;;19.37;57.56
33163;BME280;29282;45.656;11.302;2023-05-09T06:00:39;98696.72;;;19.36;57.93
33163;BME280;29282;45.656;11.302;2023-05-09T06:03:04;98686.06;;;19.35;57.88
33163;BME280;29282;45.656;11.302;2023-05-09T06:05:30;98684.91;;;19.36;57.93
33163;BME280;29282;45.656;11.302;2023-05-09T06:07:55;98688.47;;;19.36;57.82
33163;BME280;29282;45.656;11.302;2023-05-09T06:10:21;98690.41;;;19.36;57.90
33163;BME280;29282;45.656;11.302;2023-05-09T06:12:46;98697.50;;;19.37;57.75
33163;BME280;29282;45.656;11.302;2023-05-09T06:15:12;98698.34;;;19.37;57.99
33163;BME280;29282;45.656;11.302;2023-05-09T06:17:37;98700.25;;;19.37;58.21
33163;BME280;29282;45.656;11.302;2023-05-09T06:20:03;98697.50;;;19.37;58.11
33163;BME280;29282;45.656;11.302;2023-05-09T06:22:29;98706.59;;;19.37;58.14
33163;BME280;29282;45.656;11.302;2023-05-09T06:24:54;98702.19;;;19.36;58.21
33163;BME280;29282;45.656;11.302;2023-05-09T06:27:20;98693.66;;;19.38;58.17
33163;BME280;29282;45.656;11.302;2023-05-09T06:29:45;98692.84;;;19.37;58.26
33163;BME280;29282;45.656;11.302;2023-05-09T06:32:10;98689.25;;;19.37;58.16
33163;BME280;29282;45.656;11.302;2023-05-09T06:34:36;98683.78;;;19.37;58.18
33163;BME280;29282;45.656;11.302;2023-05-09T06:37:01;98686.50;;;19.37;58.41
33163;BME280;29282;45.656;11.302;2023-05-09T06:39:27;98692.00;;;19.37;58.42
33163;BME280;29282;45.656;11.302;2023-05-09T06:41:52;98699.13;;;19.38;57.87
33163;BME280;29282;45.656;11.302;2023-05-09T06:44:18;98697.69;;;19.40;58.22
33163;BME280;29282;45.656;11.302;2023-05-09T06:46:43;98702.34;;;19.40;58.10
33163;BME280;29282;45.656;11.302;2023-05-09T06:49:08;98696.84;;;19.40;58.16
33163;BME280;29282;45.656;11.302;2023-05-09T06:51:35;98707.03;;;19.39;58.08
33163;BME280;29282;45.656;11.302;2023-05-09T06:54:00;98701.09;;;19.37;58.36
33163;BME280;29282;45.656;11.302;2023-05-09T06:56:26;98701.88;;;19.38;58.37
33163;BME280;29282;45.656;11.302;2023-05-09T06:58:51;98703.00;;;19.37;57.97
33163;BME280;29282;45.656;11.302;2023-05-09T07:01:17;98693.16;;;19.36;58.34
33163;BME280;29282;45.656;11.302;2023-05-09T07:03:42;98695.09;;;19.35;58.13
33163;BME280;29282;45.656;11.302;2023-05-09T07:06:08;98697.50;;;19.37;57.89
33163;BME280;29282;45.656;11.302;2023-05-09T07:08:33;98693.16;;;19.36;57.68
33163;BME280;29282;45.656;11.302;2023-05-09T07:10:59;98699.81;;;19.35;58.06
33163;BME280;29282;45.656;11.302;2023-05-09T07:13:24;98695.09;;;19.35;57.98
33163;BME280;29282;45.656;11.302;2023-05-09T07:15:49;98680.56;;;19.35;57.69
33163;BME280;29282;45.656;11.302;2023-05-09T07:18:15;98682.50;;;19.34;58.04
33163;BME280;29282;45.656;11.302;2023-05-09T07:20:40;98684.13;;;19.35;58.00
33163;BME280;29282;45.656;11.302;2023-05-09T07:23:06;98680.56;;;19.35;57.81
33163;BME280;29282;45.656;11.302;2023-05-09T07:25:31;98683.31;;;19.35;57.77
33163;BME280;29282;45.656;11.302;2023-05-09T07:27:57;98678.63;;;19.35;57.94
33163;BME280;29282;45.656;11.302;2023-05-09T07:30:22;98679.41;;;19.36;57.80
33163;BME280;29282;45.656;11.302;2023-05-09T07:32:48;98681.72;;;19.34;57.85
33163;BME280;29282;45.656;11.302;2023-05-09T07:35:13;98680.56;;;19.35;57.90
33163;BME280;29282;45.656;11.302;2023-05-09T07:37:39;98688.00;;;19.34;57.68
33163;BME280;29282;45.656;11.302;2023-05-09T07:40:05;98676.22;;;19.34;57.76
33163;BME280;29282;45.656;11.302;2023-05-09T07:42:31;98678.97;;;19.34;57.77
33163;BME280;29282;45.656;11.302;2023-05-09T07:44:59;98679.78;;;19.34;57.78
33163;BME280;29282;45.656;11.302;2023-05-09T07:47:25;98677.81;;;19.35;57.85
33163;BME280;29282;45.656;11.302;2023-05-09T07:49:50;98677.03;;;19.34;57.81
33163;BME280;29282;45.656;11.302;2023-05-09T07:52:16;98669.88;;;19.33;57.78
33163;BME280;29282;45.656;11.302;2023-05-09T07:54:43;98663.28;;;19.34;57.80
33163;BME280;29282;45.656;11.302;2023-05-09T07:57:08;98661.34;;;19.35;58.13
33163;BME280;29282;45.656;11.302;2023-05-09T07:59:34;98662.13;;;19.35;57.76
33163;BME280;29282;45.656;11.302;2023-05-09T08:01:59;98666.03;;;19.34;57.70
33163;BME280;29282;45.656;11.302;2023-05-09T08:04:25;98667.63;;;19.35;57.80
33163;BME280;29282;45.656;11.302;2023-05-09T08:06:50;98656.63;;;19.35;57.63
33163;BME280;29282;45.656;11.302;2023-05-09T08:09:15;98655.84;;;19.35;57.67
33163;BME280;29282;45.656;11.302;2023-05-09T08:11:42;98651.16;;;19.35;57.77
33163;BME280;29282;45.656;11.302;2023-05-09T08:14:08;98651.16;;;19.35;57.79
33163;BME280;29282;45.656;11.302;2023-05-09T08:16:33;98647.59;;;19.35;57.74
33163;BME280;29282;45.656;11.302;2023-05-09T08:18:59;98640.97;;;19.36;57.56
33163;BME280;29282;45.656;11.302;2023-05-09T08:21:24;98646.44;;;19.36;57.62
33163;BME280;29282;45.656;11.302;2023-05-09T08:23:50;98635.47;;;19.36;57.64
33163;BME280;29282;45.656;11.302;2023-05-09T08:26:16;98636.25;;;19.36;57.53
33163;BME280;29282;45.656;11.302;2023-05-09T08:28:42;98634.31;;;19.37;57.64
33163;BME280;29282;45.656;11.302;2023-05-09T08:31:08;98635.47;;;19.36;57.58
33163;BME280;29282;45.656;11.302;2023-05-09T08:33:33;98630.78;;;19.36;57.60
33163;BME280;29282;45.656;11.302;2023-05-09T08:35:59;98629.97;;;19.36;57.54
33163;BME280;29282;45.656;11.302;2023-05-09T08:38:24;98635.47;;;19.36;57.53
33163;BME280;29282;45.656;11.302;2023-05-09T08:40:50;98640.97;;;19.36;57.53
33163;BME280;29282;45.656;11.302;2023-05-09T08:43:16;98629.97;;;19.36;57.63
33163;BME280;29282;45.656;11.302;2023-05-09T08:46:10;98623.66;;;19.35;57.42
33163;BME280;29282;45.656;11.302;2023-05-09T08:48:35;98621.72;;;19.36;57.45
33163;BME280;29282;45.656;11.302;2023-05-09T08:51:03;98625.28;;;19.36;57.44
33163;BME280;29282;45.656;11.302;2023-05-09T08:53:29;98623.66;;;19.35;57.53
33163;BME280;29282;45.656;11.302;2023-05-09T08:55:58;98618.97;;;19.36;57.64
33163;BME280;29282;45.656;11.302;2023-05-09T08:58:25;98617.38;;;19.35;57.54
33163;BME280;29282;45.656;11.302;2023-05-09T09:00:52;98625.28;;;19.36;57.54
33163;BME280;29282;45.656;11.302;2023-05-09T09:03:19;98618.19;;;19.35;57.44
33163;BME280;29282;45.656;11.302;2023-05-09T09:05:45;98621.72;;;19.36;57.49
33163;BME280;29282;45.656;11.302;2023-05-09T09:08:13;98613.81;;;19.34;57.42
33163;BME280;29282;45.656;11.302;2023-05-09T09:10:40;98622.88;;;19.35;57.53
33163;BME280;29282;45.656;11.302;2023-05-09T09:13:12;98622.88;;;19.35;57.55
33163;BME280;29282;45.656;11.302;2023-05-09T09:15:39;98624.81;;;19.34;57.40
33163;BME280;29282;45.656;11.302;2023-05-09T09:18:10;98622.88;;;19.35;57.44
33163;BME280;29282;45.656;11.302;2023-05-09T09:20:40;98632.25;;;19.34;57.47
33163;BME280;29282;45.656;11.302;2023-05-09T09:23:09;98625.63;;;19.35;57.48
33163;BME280;29282;45.656;11.302;2023-05-09T09:25:35;98619.31;;;19.34;57.52
33163;BME280;29282;45.656;11.302;2023-05-09T09:28:01;98613.81;;;19.34;57.47
33163;BME280;29282;45.656;11.302;2023-05-09T09:30:27;98614.63;;;19.35;57.59
33163;BME280;29282;45.656;11.302;2023-05-09T09:32:53;98620.13;;;19.35;57.38
33163;BME280;29282;45.656;11.302;2023-05-09T09:35:19;98619.31;;;19.34;57.45
33163;BME280;29282;45.656;11.302;2023-05-09T09:37:44;98613.03;;;19.34;57.42
33163;BME280;29282;45.656;11.302;2023-05-09T09:40:11;98617.38;;;19.35;57.45
33163;BME280;29282;45.656;11.302;2023-05-09T09:42:45;98609.13;;;19.35;57.32
33163;BME280;29282;45.656;11.302;2023-05-09T09:45:12;98611.88;;;19.35;57.29
33163;BME280;29282;45.656;11.302;2023-05-09T09:47:39;98609.13;;;19.35;57.46
33163;BME280;29282;45.656;11.302;2023-05-09T09:50:14;98603.63;;;19.35;57.33
33163;BME280;29282;45.656;11.302;2023-05-09T09:52:53;98602.84;;;19.34;57.36
33163;BME280;29282;45.656;11.302;2023-05-09T09:55:23;98596.19;;;19.35;57.44
33163;BME280;29282;45.656;11.302;2023-05-09T09:57:51;98598.16;;;19.35;57.29
33163;BME280;29282;45.656;11.302;2023-05-09T10:00:23;98595.41;;;19.35;57.32
33163;BME280;29282;45.656;11.302;2023-05-09T10:05:20;98590.69;;;19.35;57.23
33163;BME280;29282;45.656;11.302;2023-05-09T10:10:27;98585.22;;;19.35;57.21
33163;BME280;29282;45.656;11.302;2023-05-09T10:12:55;98581.66;;;19.35;57.23
33163;BME280;29282;45.656;11.302;2023-05-09T10:15:22;98579.72;;;19.35;57.28
33163;BME280;29282;45.656;11.302;2023-05-09T10:17:55;98580.84;;;19.34;57.28
33163;BME280;29282;45.656;11.302;2023-05-09T10:20:22;98585.22;;;19.35;57.17
33163;BME280;29282;45.656;11.302;2023-05-09T10:22:48;98578.91;;;19.35;57.22
33163;BME280;29282;45.656;11.302;2023-05-09T10:25:21;98575.38;;;19.34;57.28
33163;BME280;29282;45.656;11.302;2023-05-09T10:27:51;98578.91;;;19.35;57.23
33163;BME280;29282;45.656;11.302;2023-05-09T10:30:26;98576.16;;;19.35;57.21
33163;BME280;29282;45.656;11.302;2023-05-09T10:32:52;98578.09;;;19.34;57.18
33163;BME280;29282;45.656;11.302;2023-05-09T10:35:30;98572.63;;;19.34;57.33
33163;BME280;29282;45.656;11.302;2023-05-09T10:37:58;98573.41;;;19.35;57.20
33163;BME280;29282;45.656;11.302;2023-05-09T10:40:26;98573.41;;;19.35;57.18
33163;BME280;29282;45.656;11.302;2023-05-09T10:42:52;98564.03;;;19.36;57.22
33163;BME280;29282;45.656;11.302;2023-05-09T10:45:19;98570.66;;;19.35;57.19
33163;BME280;29282;45.656;11.302;2023-05-09T10:47:47;98568.72;;;19.35;57.15
33163;BME280;29282;45.656;11.302;2023-05-09T10:50:14;98563.22;;;19.35;57.23
33163;BME280;29282;45.656;11.302;2023-05-09T10:55:53;98563.22;;;19.35;57.18
33163;BME280;29282;45.656;11.302;2023-05-09T11:00:53;98558.53;;;19.36;57.16
33163;BME280;29282;45.656;11.302;2023-05-09T11:03:19;98551.44;;;19.35;57.28
33163;BME280;29282;45.656;11.302;2023-05-09T11:05:46;98551.44;;;19.35;57.14
33163;BME280;29282;45.656;11.302;2023-05-09T11:08:26;98547.53;;;19.36;57.07
33163;BME280;29282;45.656;11.302;2023-05-09T11:11:03;98543.19;;;19.35;57.09
33163;BME280;29282;45.656;11.302;2023-05-09T11:13:30;98549.50;;;19.35;57.15
33163;BME280;29282;45.656;11.302;2023-05-09T11:18:24;98553.03;;;19.36;57.14
33163;BME280;29282;45.656;11.302;2023-05-09T11:20:49;98550.28;;;19.36;57.12
33163;BME280;29282;45.656;11.302;2023-05-09T11:23:19;98542.03;;;19.36;57.16
33163;BME280;29282;45.656;11.302;2023-05-09T11:25:46;98533.00;;;19.35;57.09
33163;BME280;29282;45.656;11.302;2023-05-09T11:28:29;98527.50;;;19.35;57.11
33163;BME280;29282;45.656;11.302;2023-05-09T11:31:27;98534.59;;;19.36;57.18
33163;BME280;29282;45.656;11.302;2023-05-09T11:33:59;98532.66;;;19.37;57.18
33163;BME280;29282;45.656;11.302;2023-05-09T11:36:29;98529.91;;;19.37;57.15
33163;BME280;29282;45.656;11.302;2023-05-09T11:39:07;98520.88;;;19.36;57.07
33163;BME280;29282;45.656;11.302;2023-05-09T11:41:41;98513.44;;;19.37;57.06
33163;BME280;29282;45.656;11.302;2023-05-09T11:44:26;98509.56;;;19.38;57.07
33163;BME280;29282;45.656;11.302;2023-05-09T11:46:52;98507.13;;;19.36;57.02
33163;BME280;29282;45.656;11.302;2023-05-09T11:49:17;98515.06;;;19.38;57.21
33163;BME280;29282;45.656;11.302;2023-05-09T11:51:44;98508.41;;;19.39;57.58
33163;BME280;29282;45.656;11.302;2023-05-09T11:54:09;98510.00;;;19.40;57.75
33163;BME280;29282;45.656;11.302;2023-05-09T11:56:39;98510.00;;;19.40;58.03
33163;BME280;29282;45.656;11.302;2023-05-09T11:59:06;98507.25;;;19.40;57.97
33163;BME280;29282;45.656;11.302;2023-05-09T12:01:32;98504.50;;;19.40;58.04
33163;BME280;29282;45.656;11.302;2023-05-09T12:03:57;98508.09;;;19.40;58.13
33163;BME280;29282;45.656;11.302;2023-05-09T12:06:24;98506.47;;;19.39;58.07
33163;BME280;29282;45.656;11.302;2023-05-09T12:08:50;98506.94;;;19.41;58.12
33163;BME280;29282;45.656;11.302;2023-05-09T12:11:16;98499.03;;;19.40;58.18
33163;BME280;29282;45.656;11.302;2023-05-09T12:13:50;98510.00;;;19.40;58.37
33163;BME280;29282;45.656;11.302;2023-05-09T12:16:17;98499.03;;;19.40;58.32
33163;BME280;29282;45.656;11.302;2023-05-09T12:18:50;98501.75;;;19.40;58.29
33163;BME280;29282;45.656;11.302;2023-05-09T12:21:19;98499.03;;;19.40;58.32
33163;BME280;29282;45.656;11.302;2023-05-09T12:23:46;98493.53;;;19.40;58.25
33163;BME280;29282;45.656;11.302;2023-05-09T12:26:12;98497.91;;;19.41;58.27
33163;BME280;29282;45.656;11.302;2023-05-09T12:28:37;98495.16;;;19.41;58.19
33163;BME280;29282;45.656;11.302;2023-05-09T12:31:04;98488.84;;;19.40;58.17
33163;BME280;29282;45.656;11.302;2023-05-09T12:33:30;98489.66;;;19.41;58.41
33163;BME280;29282;45.656;11.302;2023-05-09T12:36:09;98481.41;;;19.41;58.44
33163;BME280;29282;45.656;11.302;2023-05-09T12:38:35;98478.66;;;19.41;58.44
33163;BME280;29282;45.656;11.302;2023-05-09T12:41:08;98463.78;;;19.42;58.45
33163;BME280;29282;45.656;11.302;2023-05-09T12:43:36;98468.47;;;19.41;58.39
33163;BME280;29282;45.656;11.302;2023-05-09T12:46:02;98469.28;;;19.42;58.46
33163;BME280;29282;45.656;11.302;2023-05-09T12:48:31;98466.53;;;19.42;58.38
33163;BME280;29282;45.656;11.302;2023-05-09T12:51:01;98463.78;;;19.42;58.42
33163;BME280;29282;45.656;11.302;2023-05-09T12:53:28;98462.19;;;19.41;58.41
33163;BME280;29282;45.656;11.302;2023-05-09T12:56:03;98462.19;;;19.41;58.43
33163;BME280;29282;45.656;11.302;2023-05-09T12:58:32;98460.22;;;19.41;58.49
33163;BME280;29282;45.656;11.302;2023-05-09T13:00:58;98451.19;;;19.41;58.48
33163;BME280;29282;45.656;11.302;2023-05-09T13:03:26;98450.41;;;19.40;58.49
33163;BME280;29282;45.656;11.302;2023-05-09T13:06:03;98459.44;;;19.41;58.46
33163;BME280;29282;45.656;11.302;2023-05-09T13:08:31;98447.28;;;19.42;58.47
33163;BME280;29282;45.656;11.302;2023-05-09T13:10:58;98448.44;;;19.41;58.23